Close

Questo sito utlizza cookie. Può leggere come li usiamo nella nostra Privacy Policy.

Ronchi Tower
Ronchi Tower

From Facebook

METAR & TAF

2018/08/18 23:20 LIPQ 182320Z AUTO 32003KT 280V350 9999 NCD 24/17 Q1017
2018/08/18 18:21 TAF LIPQ 181700Z 1818/1918 VRB05KT CAVOK
2018/08/18 23:20 LIPZ 182320Z 03010KT CAVOK 24/16 Q1017 NOSIG
2018/08/18 18:26 TAF LIPZ 181700Z 1818/1924 04012KT CAVOK BECMG 1908/1911 15010KT BECMG 1918/1920 03010KT
2018/08/18 23:20 LIPH 182320Z AUTO 05004KT 010V080 9999 NCD 24/19 Q1017
2018/08/18 18:21 TAF LIPH 181700Z 1818/1918 VRB05KT CAVOK
2018/08/18 23:20 LIRF 182320Z 07005KT CAVOK 23/18 Q1016 NOSIG
2018/08/18 18:26 TAF LIRF 181700Z 1818/1924 VRB04KT 9999 SCT030 BECMG 1909/1911 28012KT TEMPO 1914/1917 4000 TSRA BECMG 1917/1919 VRB05KT
2018/08/18 23:20 LIML 182320Z 03002KT CAVOK 22/17 Q1018 NOSIG
2018/08/18 18:21 TAF LIML 181700Z 1818/1918 VRB05KT CAVOK
2018/08/18 23:20 EDDM 182320Z 34002KT CAVOK 17/15 Q1022 NOSIG
2018/08/18 18:34 TAF AMD EDDM 181820Z 1818/1924 VRB02KT CAVOK BECMG 1908/1910 30005KT
2018/08/18 23:20 EGSS 182320Z AUTO 23010KT 9999 SCT018 OVC035 19/15 Q1020
2018/08/18 18:15 TAF EGSS 181652Z 1818/1924 25010KT 9999 BKN025 TEMPO 1902/1916 BKN010 PROB30 TEMPO 1902/1912 6000 -DZ BKN006 PROB30 TEMPO 1912/1917 23015G25KT 4000 -RADZ BKN005

FlightRadar24

Radar Meteo

Traffic data

Marzo 2018

Passeggeri: 57555-3,4% (rank: 23)
Nazionali 39679 +1,0% 21°
Internazionali 17689 -11,7% 23°

Movimenti: 1074-16,3% (rank: 21)
Tot commerciale 653 -10,3% 22°
Aviazione generale 421 -24,1%

Cargo (tons): 96,3109,5% (rank: 18)

Gennaio - Marzo 2018

Passeggeri: 155953-1,4% (rank: 23)
Nazionali 108431 +3,9% 21°
Internazionali 47066 -11,5% 22°

Movimenti: 3163-14,5% (rank: 21)
Tot commerciale 1876 -7,3% 21°
Aviazione generale 1287 -23,3%

Cargo (tons): 125,6+16,7% (rank: 21)

Photo

Douglas DC-6B
Douglas DC-6B
Distinct views: 14
Douglas DC-6B
Douglas DC-6B
Distinct views: 58
Douglas DC-6B
Douglas DC-6B
Distinct views: 207
Apron
Apron
Total views: 1451